JAL74B RJTT-EFHK
Flight info
| Callsign | JAL74B |
|---|---|
| Flight time | N/A |
| Altitude | 33000 |
| Route | INUBO Y808 PUTER/N0493F340 A590 POWAL/N0493F330 DCT OPAKE DCT NATES R338 MORLY/N0487F350 R338 MARCC DCT JUJXI DCT OMEKA/N0497F370 DCT 81N120W 82N100W 82N080W 82N060W/M085F370 82N040W 81N020W 78N000E/N0501F370 DCT VATAX/N0485F390 DCT IBOSU Y86 LUSEP |
| Aircraft | A35K/H-SDE2E3GHIJ3J4J5LM1ORWXY/LB1D1 |
Departure
| Time | 2026-04-30 19:05 |
|---|---|
| Airport | Tokyo Haneda International Airport (RJTT) |
Arrival
| Time | N/A |
|---|---|
| Airport | Helsinki Vantaa Airport (EFHK) |
| Time | Latitude | Longitude | Altitude | Speed | Heading |
|---|---|---|---|---|---|
| 2026-04-30 18:50 | 35.55108 | 139.79004 | 28 ft | 0 kts | 238° |
| 2026-04-30 18:51 | 35.55116 | 139.79018 | 28 ft | 2 kts | 238° |
| 2026-04-30 18:52 | 35.55124 | 139.79035 | 28 ft | 2 kts | 238° |
| 2026-04-30 18:52 | 35.55133 | 139.79052 | 28 ft | 2 kts | 238° |
| 2026-04-30 18:52 | 35.55143 | 139.79068 | 28 ft | 2 kts | 183° |
| 2026-04-30 18:52 | 35.55160 | 139.79064 | 28 ft | 2 kts | 157° |
| 2026-04-30 18:53 | 35.55171 | 139.79058 | 27 ft | 1 kts | 155° |
| 2026-04-30 18:53 | 35.55172 | 139.79057 | 27 ft | 0 kts | 155° |
| 2026-04-30 18:57 | 35.55167 | 139.79061 | 27 ft | 2 kts | 154° |
| 2026-04-30 18:58 | 35.55099 | 139.79104 | 28 ft | 9 kts | 152° |
| 2026-04-30 18:58 | 35.55046 | 139.79160 | 28 ft | 12 kts | 122° |
| 2026-04-30 18:58 | 35.55052 | 139.79245 | 28 ft | 9 kts | 66° |
| 2026-04-30 18:59 | 35.55056 | 139.79336 | 29 ft | 3 kts | 120° |
| 2026-04-30 19:00 | 35.55055 | 139.79337 | 29 ft | 3 kts | 121° |
| 2026-04-30 19:00 | 35.55050 | 139.79346 | 29 ft | 1 kts | 129° |
| 2026-04-30 19:00 | 35.54937 | 139.79444 | 29 ft | 11 kts | 148° |
| 2026-04-30 19:01 | 35.54750 | 139.79579 | 29 ft | 21 kts | 149° |
| 2026-04-30 19:01 | 35.54606 | 139.79675 | 29 ft | 26 kts | 151° |
| 2026-04-30 19:02 | 35.54281 | 139.79909 | 29 ft | 27 kts | 152° |
| 2026-04-30 19:02 | 35.53992 | 139.80115 | 29 ft | 19 kts | 149° |
| 2026-04-30 19:03 | 35.53875 | 139.80241 | 29 ft | 0 kts | 92° |
| 2026-04-30 19:03 | 35.53922 | 139.80372 | 29 ft | 15 kts | 60° |
| 2026-04-30 19:04 | 35.54050 | 139.80448 | 30 ft | 10 kts | 330° |
| 2026-04-30 19:04 | 35.54157 | 139.80372 | 30 ft | 18 kts | 330° |
| 2026-04-30 19:05 | 35.55012 | 139.79772 | 30 ft | 126 kts | 330° |
| 2026-04-30 19:05 | 35.56826 | 139.78327 | 849 ft | 161 kts | 328° |
| 2026-04-30 19:06 | 35.58968 | 139.78677 | 1377 ft | 182 kts | 51° |
| 2026-04-30 19:06 | 35.59661 | 139.80038 | 1556 ft | 196 kts | 66° |
| 2026-04-30 19:06 | 35.60708 | 139.82730 | 1918 ft | 222 kts | 70° |
| 2026-04-30 19:07 | 35.61062 | 139.87277 | 2779 ft | 239 kts | 95° |
| 2026-04-30 19:07 | 35.61026 | 139.88660 | 3169 ft | 241 kts | 95° |
| 2026-04-30 19:08 | 35.61168 | 139.92874 | 4168 ft | 258 kts | 79° |
| 2026-04-30 19:08 | 35.63721 | 139.96138 | 5140 ft | 292 kts | 21° |
| 2026-04-30 19:08 | 35.71879 | 139.96794 | 7173 ft | 308 kts | 2° |
| 2026-04-30 19:09 | 35.88560 | 139.89824 | 10826 ft | 350 kts | 335° |
| 2026-04-30 19:09 | 35.98832 | 139.87245 | 11571 ft | 409 kts | 1° |
| 2026-04-30 19:09 | 36.07554 | 139.90614 | 12704 ft | 428 kts | 31° |
| 2026-04-30 19:10 | 36.21510 | 140.14894 | 15843 ft | 446 kts | 63° |
| 2026-04-30 19:10 | 36.33319 | 140.42694 | 18619 ft | 465 kts | 63° |
| 2026-04-30 19:11 | 36.39431 | 140.57105 | 19675 ft | 477 kts | 62° |
| 2026-04-30 19:11 | 36.52050 | 140.87071 | 21789 ft | 502 kts | 62° |
| 2026-04-30 19:11 | 36.58573 | 141.02667 | 22820 ft | 514 kts | 63° |
| 2026-04-30 19:12 | 36.65200 | 141.18593 | 23791 ft | 526 kts | 63° |
| 2026-04-30 19:12 | 36.71918 | 141.34815 | 24657 ft | 537 kts | 63° |
| 2026-04-30 19:12 | 36.78891 | 141.51743 | 25556 ft | 547 kts | 63° |
| 2026-04-30 19:13 | 36.92888 | 141.85989 | 27298 ft | 568 kts | 63° |
| 2026-04-30 19:13 | 37.07453 | 142.22020 | 28836 ft | 590 kts | 63° |
| 2026-04-30 19:13 | 37.14831 | 142.40430 | 29842 ft | 593 kts | 63° |
| 2026-04-30 19:14 | 37.22235 | 142.59010 | 30816 ft | 594 kts | 63° |
| 2026-04-30 19:14 | 37.29567 | 142.77518 | 31765 ft | 593 kts | 63° |
| 2026-04-30 19:14 | 37.36816 | 142.95926 | 32638 ft | 592 kts | 63° |
| 2026-04-30 19:14 | 37.44126 | 143.14597 | 33131 ft | 599 kts | 63° |
| 2026-04-30 19:15 | 37.51553 | 143.33684 | 33136 ft | 599 kts | 63° |
| 2026-04-30 19:15 | 37.73298 | 143.90253 | 33156 ft | 600 kts | 62° |
| 2026-04-30 19:16 | 37.87740 | 144.28406 | 33168 ft | 600 kts | 62° |
| 2026-04-30 19:17 | 38.09111 | 144.85755 | 33198 ft | 598 kts | 62° |
| 2026-04-30 19:17 | 38.30181 | 145.43379 | 33218 ft | 598 kts | 62° |
| 2026-04-30 19:18 | 38.47686 | 145.69095 | 33231 ft | 574 kts | 34° |
| 2026-04-30 19:18 | 38.63308 | 145.87358 | 33230 ft | 574 kts | 35° |
| 2026-04-30 19:19 | 38.86628 | 146.15232 | 33244 ft | 573 kts | 35° |
| 2026-04-30 19:19 | 39.21499 | 146.57371 | 33242 ft | 571 kts | 35° |
| 2026-04-30 19:20 | 39.44547 | 146.85558 | 33256 ft | 569 kts | 35° |
| 2026-04-30 19:21 | 39.78731 | 147.27864 | 33257 ft | 567 kts | 34° |
| 2026-04-30 19:22 | 40.24182 | 147.85075 | 33252 ft | 565 kts | 34° |
| 2026-04-30 19:23 | 40.91160 | 148.71478 | 33258 ft | 558 kts | 34° |
| 2026-04-30 19:24 | 41.23890 | 149.14672 | 33254 ft | 552 kts | 35° |
| 2026-04-30 19:25 | 41.77716 | 149.87158 | 33256 ft | 548 kts | 35° |
| 2026-04-30 19:26 | 42.20110 | 150.45565 | 33232 ft | 542 kts | 36° |
| 2026-04-30 19:27 | 42.51394 | 150.89444 | 33224 ft | 537 kts | 37° |
| 2026-04-30 19:28 | 42.82154 | 151.33253 | 33218 ft | 531 kts | 38° |
| 2026-04-30 19:29 | 43.22430 | 151.91651 | 33216 ft | 525 kts | 38° |
| 2026-04-30 19:30 | 43.61996 | 152.50208 | 33211 ft | 523 kts | 38° |
| 2026-04-30 19:31 | 44.01094 | 153.09287 | 33216 ft | 517 kts | 38° |
| 2026-04-30 19:31 | 44.30015 | 153.53796 | 33220 ft | 514 kts | 38° |
| 2026-04-30 19:32 | 44.49053 | 153.83485 | 33226 ft | 511 kts | 38° |
| 2026-04-30 19:32 | 44.67794 | 154.13017 | 33227 ft | 510 kts | 38° |
| 2026-04-30 19:33 | 44.86574 | 154.42931 | 33227 ft | 510 kts | 38° |
| 2026-04-30 19:33 | 45.05086 | 154.73491 | 33231 ft | 511 kts | 38° |
| 2026-04-30 19:34 | 45.23498 | 155.04189 | 33220 ft | 511 kts | 38° |
| 2026-04-30 19:35 | 45.50929 | 155.50557 | 33214 ft | 512 kts | 38° |
| 2026-04-30 19:35 | 45.69207 | 155.81887 | 33209 ft | 513 kts | 38° |
| 2026-04-30 19:36 | 45.87402 | 156.13428 | 33205 ft | 513 kts | 38° |
| 2026-04-30 19:36 | 46.14423 | 156.60941 | 33193 ft | 508 kts | 39° |
| 2026-04-30 19:37 | 46.32042 | 156.92360 | 33180 ft | 504 kts | 40° |
| 2026-04-30 19:37 | 46.49613 | 157.24051 | 33167 ft | 503 kts | 40° |
| 2026-04-30 19:38 | 46.67056 | 157.55872 | 33151 ft | 504 kts | 41° |
| 2026-04-30 19:38 | 46.84510 | 157.88086 | 33131 ft | 506 kts | 42° |
| 2026-04-30 19:39 | 47.01895 | 158.20552 | 33118 ft | 507 kts | 43° |
| 2026-04-30 19:39 | 47.19251 | 158.53350 | 33103 ft | 508 kts | 44° |
| 2026-04-30 19:40 | 47.36406 | 158.86157 | 33085 ft | 508 kts | 45° |
| 2026-04-30 19:40 | 47.53553 | 159.19344 | 33063 ft | 508 kts | 46° |
| 2026-04-30 19:41 | 47.70611 | 159.52763 | 33045 ft | 508 kts | 47° |
| 2026-04-30 19:41 | 47.87530 | 159.86319 | 33030 ft | 508 kts | 48° |
| 2026-04-30 19:42 | 48.04397 | 160.20188 | 33016 ft | 507 kts | 49° |
| 2026-04-30 19:42 | 48.21133 | 160.54219 | 32997 ft | 507 kts | 49° |
| 2026-04-30 19:43 | 48.37379 | 160.88584 | 32975 ft | 507 kts | 51° |
| 2026-04-30 19:44 | 48.61292 | 161.41182 | 32953 ft | 506 kts | 52° |
| 2026-04-30 19:44 | 48.77170 | 161.76642 | 32939 ft | 506 kts | 52° |
| 2026-04-30 19:45 | 48.92769 | 162.11938 | 32930 ft | 505 kts | 53° |
| 2026-04-30 19:45 | 49.08297 | 162.47544 | 32920 ft | 504 kts | 53° |
| 2026-04-30 19:46 | 49.23743 | 162.83435 | 32912 ft | 503 kts | 54° |
| 2026-04-30 19:46 | 49.38999 | 163.19368 | 32900 ft | 502 kts | 54° |
| 2026-04-30 19:47 | 49.54142 | 163.55524 | 32889 ft | 502 kts | 55° |
| 2026-04-30 19:47 | 49.69029 | 163.91552 | 32879 ft | 501 kts | 55° |
| 2026-04-30 19:48 | 49.83874 | 164.27980 | 32868 ft | 500 kts | 56° |
| 2026-04-30 19:48 | 49.98601 | 164.64613 | 32854 ft | 499 kts | 56° |
| 2026-04-30 19:49 | 50.13151 | 165.01320 | 32838 ft | 498 kts | 56° |
| 2026-04-30 19:49 | 50.30695 | 165.34294 | 32828 ft | 494 kts | 44° |
| 2026-04-30 19:49 | 50.40125 | 165.49998 | 32823 ft | 494 kts | 44° |
| 2026-04-30 19:50 | 50.58862 | 165.81571 | 32810 ft | 494 kts | 45° |
| 2026-04-30 19:50 | 50.77515 | 166.13439 | 32797 ft | 493 kts | 45° |
| 2026-04-30 19:51 | 50.95923 | 166.45242 | 32789 ft | 493 kts | 45° |
| 2026-04-30 19:51 | 51.14364 | 166.77549 | 32781 ft | 493 kts | 45° |
| 2026-04-30 19:52 | 51.32705 | 167.10075 | 32771 ft | 493 kts | 46° |
| 2026-04-30 19:52 | 51.50962 | 167.42880 | 32757 ft | 493 kts | 46° |
| 2026-04-30 19:53 | 51.69128 | 167.75953 | 32747 ft | 492 kts | 47° |
| 2026-04-30 19:53 | 51.84162 | 168.03637 | 32734 ft | 492 kts | 47° |
| 2026-04-30 19:54 | 52.02091 | 168.37088 | 32725 ft | 492 kts | 48° |
| 2026-04-30 19:54 | 52.19952 | 168.70843 | 32712 ft | 491 kts | 48° |
| 2026-04-30 19:55 | 52.37696 | 169.04836 | 32700 ft | 491 kts | 49° |
| 2026-04-30 19:55 | 52.55358 | 169.39129 | 32689 ft | 491 kts | 49° |
| 2026-04-30 19:56 | 52.72894 | 169.73652 | 32678 ft | 491 kts | 50° |
| 2026-04-30 19:56 | 52.90349 | 170.08492 | 32666 ft | 491 kts | 50° |
| 2026-04-30 19:57 | 53.01198 | 170.21973 | 32664 ft | 490 kts | 28° |
| 2026-04-30 19:57 | 53.13329 | 170.32425 | 32664 ft | 491 kts | 27° |
| 2026-04-30 19:57 | 53.37531 | 170.53640 | 32657 ft | 492 kts | 28° |
| 2026-04-30 19:58 | 53.61597 | 170.75055 | 32656 ft | 492 kts | 28° |
| 2026-04-30 19:58 | 53.85793 | 170.96867 | 32651 ft | 493 kts | 28° |
| 2026-04-30 19:59 | 54.09969 | 171.18950 | 32656 ft | 494 kts | 28° |
| 2026-04-30 20:00 | 54.46349 | 171.52745 | 32653 ft | 496 kts | 29° |
| 2026-04-30 20:00 | 54.70601 | 171.75660 | 32655 ft | 498 kts | 29° |
| 2026-04-30 20:01 | 55.04970 | 172.15662 | 32656 ft | 497 kts | 43° |
| 2026-04-30 20:01 | 55.25406 | 172.48368 | 32663 ft | 498 kts | 43° |
| 2026-04-30 20:02 | 55.55962 | 172.98016 | 32662 ft | 499 kts | 44° |
| 2026-04-30 20:03 | 55.86373 | 173.48538 | 32667 ft | 499 kts | 44° |
| 2026-04-30 20:03 | 56.06428 | 173.82488 | 32668 ft | 500 kts | 45° |
| 2026-04-30 20:04 | 56.26545 | 174.17060 | 32668 ft | 501 kts | 45° |
| 2026-04-30 20:05 | 56.56644 | 174.69794 | 32669 ft | 503 kts | 46° |
| 2026-04-30 20:05 | 56.86651 | 175.23615 | 32672 ft | 505 kts | 46° |
| 2026-04-30 20:06 | 57.06598 | 175.60111 | 32675 ft | 506 kts | 47° |
| 2026-04-30 20:06 | 57.26468 | 175.97055 | 32674 ft | 507 kts | 47° |
| 2026-04-30 20:07 | 57.46256 | 176.34452 | 32677 ft | 508 kts | 47° |
| 2026-04-30 20:08 | 57.75962 | 176.90665 | 32675 ft | 510 kts | 47° |
| 2026-04-30 20:08 | 57.95792 | 177.28876 | 32676 ft | 511 kts | 48° |
| 2026-04-30 20:09 | 58.15611 | 177.67716 | 32673 ft | 512 kts | 48° |
| 2026-04-30 20:09 | 58.44977 | 178.26511 | 32674 ft | 514 kts | 49° |
| 2026-04-30 20:10 | 58.74361 | 178.86897 | 32661 ft | 516 kts | 49° |
| 2026-04-30 20:11 | 59.03540 | 179.48483 | 32644 ft | 518 kts | 49° |
| 2026-04-30 20:11 | 59.22799 | 179.90057 | 32644 ft | 520 kts | 49° |
| 2026-04-30 20:12 | 59.51737 | -179.46019 | 32638 ft | 523 kts | 50° |
| 2026-04-30 20:13 | 59.70908 | -179.02671 | 32623 ft | 525 kts | 50° |
| 2026-04-30 20:13 | 59.90015 | -178.58635 | 32613 ft | 526 kts | 50° |
| 2026-04-30 20:14 | 60.08989 | -178.14058 | 32605 ft | 527 kts | 50° |
| 2026-04-30 20:14 | 60.29502 | -177.72489 | 32597 ft | 528 kts | 38° |
| 2026-04-30 20:15 | 60.52213 | -177.34713 | 32594 ft | 527 kts | 39° |
| 2026-04-30 20:15 | 60.74686 | -176.96483 | 32581 ft | 525 kts | 39° |
| 2026-04-30 20:16 | 60.96994 | -176.57815 | 32572 ft | 523 kts | 39° |
| 2026-04-30 20:16 | 61.19095 | -176.18772 | 32568 ft | 522 kts | 40° |
| 2026-04-30 20:17 | 61.41027 | -175.79277 | 32563 ft | 521 kts | 40° |
| 2026-04-30 20:17 | 61.62860 | -175.39194 | 32562 ft | 521 kts | 40° |
| 2026-04-30 20:18 | 61.84428 | -174.98820 | 32565 ft | 521 kts | 41° |
| 2026-04-30 20:18 | 62.06036 | -174.57568 | 32576 ft | 522 kts | 41° |
| 2026-04-30 20:19 | 62.27479 | -174.15805 | 32585 ft | 522 kts | 42° |
| 2026-04-30 20:19 | 62.48816 | -173.73404 | 32598 ft | 522 kts | 42° |
| 2026-04-30 20:20 | 62.70027 | -173.30383 | 32612 ft | 522 kts | 43° |
| 2026-04-30 20:20 | 62.91141 | -172.86667 | 32629 ft | 521 kts | 43° |
| 2026-04-30 20:21 | 63.12061 | -172.42441 | 32638 ft | 521 kts | 44° |
| 2026-04-30 20:21 | 63.32852 | -171.97551 | 32650 ft | 521 kts | 45° |
| 2026-04-30 20:22 | 63.52341 | -171.54592 | 32678 ft | 520 kts | 45° |
| 2026-04-30 20:22 | 63.72820 | -171.08495 | 32683 ft | 520 kts | 46° |
| 2026-04-30 20:23 | 63.93026 | -170.62016 | 32691 ft | 520 kts | 46° |
| 2026-04-30 20:23 | 64.13174 | -170.14646 | 32691 ft | 520 kts | 47° |
| 2026-04-30 20:24 | 64.33199 | -169.66502 | 32700 ft | 520 kts | 47° |
| 2026-04-30 20:24 | 64.52916 | -169.18028 | 32707 ft | 520 kts | 48° |
| 2026-04-30 20:25 | 64.82372 | -168.43518 | 32719 ft | 520 kts | 49° |
| 2026-04-30 20:26 | 65.17361 | -167.86347 | 32728 ft | 523 kts | 20° |
| 2026-04-30 20:26 | 65.58181 | -167.49118 | 32745 ft | 522 kts | 21° |
| 2026-04-30 20:27 | 66.12168 | -166.97749 | 32754 ft | 520 kts | 22° |
| 2026-04-30 20:28 | 66.65696 | -166.44436 | 32781 ft | 518 kts | 22° |
| 2026-04-30 20:30 | 67.32338 | -165.74465 | 32815 ft | 516 kts | 23° |
| 2026-04-30 20:31 | 68.11535 | -164.85596 | 32845 ft | 514 kts | 24° |
| 2026-04-30 20:32 | 68.76604 | -164.07416 | 32879 ft | 512 kts | 25° |
| 2026-04-30 20:33 | 69.15632 | -163.58063 | 32893 ft | 510 kts | 25° |
| 2026-04-30 20:34 | 69.54182 | -163.07363 | 32913 ft | 509 kts | 26° |
| 2026-04-30 20:35 | 69.92337 | -162.55143 | 32924 ft | 507 kts | 26° |
| 2026-04-30 20:35 | 70.30465 | -162.00793 | 32954 ft | 507 kts | 27° |
| 2026-04-30 20:36 | 70.55813 | -161.63397 | 32981 ft | 507 kts | 28° |
| 2026-04-30 20:37 | 70.93547 | -161.05723 | 33006 ft | 505 kts | 28° |
| 2026-04-30 20:37 | 71.18492 | -160.66213 | 33016 ft | 503 kts | 28° |
| 2026-04-30 20:38 | 71.43237 | -160.25871 | 33034 ft | 501 kts | 29° |
| 2026-04-30 20:38 | 71.63710 | -159.91592 | 33049 ft | 501 kts | 29° |
| 2026-04-30 20:39 | 72.04492 | -159.20729 | 33075 ft | 501 kts | 30° |
| 2026-04-30 20:40 | 72.37132 | -158.61384 | 33099 ft | 502 kts | 30° |
| 2026-04-30 20:40 | 72.61302 | -158.15820 | 33115 ft | 502 kts | 31° |
| 2026-04-30 20:41 | 72.97557 | -157.44736 | 33137 ft | 502 kts | 31° |
| 2026-04-30 20:41 | 73.21591 | -156.95685 | 33146 ft | 502 kts | 32° |
| 2026-04-30 20:42 | 73.45450 | -156.45375 | 33164 ft | 501 kts | 32° |
| 2026-04-30 20:43 | 73.81077 | -155.67050 | 33181 ft | 501 kts | 33° |
| 2026-04-30 20:43 | 74.04677 | -155.12920 | 33204 ft | 501 kts | 33° |
| 2026-04-30 20:44 | 74.39583 | -154.29305 | 33210 ft | 501 kts | 34° |
| 2026-04-30 20:45 | 74.85873 | -153.11322 | 33236 ft | 501 kts | 35° |
| 2026-04-30 20:45 | 75.08595 | -152.50159 | 33244 ft | 501 kts | 36° |
| 2026-04-30 20:46 | 75.53824 | -151.21365 | 33287 ft | 501 kts | 37° |
| 2026-04-30 20:47 | 75.87197 | -150.19712 | 33286 ft | 500 kts | 37° |
| 2026-04-30 20:48 | 76.20108 | -149.13328 | 33306 ft | 499 kts | 38° |
| 2026-04-30 20:48 | 76.41741 | -148.39767 | 33303 ft | 499 kts | 38° |
| 2026-04-30 20:49 | 76.62997 | -147.64438 | 33314 ft | 499 kts | 39° |
| 2026-04-30 20:50 | 76.94752 | -146.45794 | 33322 ft | 500 kts | 40° |
| 2026-04-30 20:50 | 77.15615 | -145.63497 | 33331 ft | 501 kts | 40° |
| 2026-04-30 20:51 | 77.36221 | -144.78517 | 33331 ft | 501 kts | 41° |
| 2026-04-30 20:51 | 77.66695 | -143.45450 | 33334 ft | 502 kts | 43° |
| 2026-04-30 20:52 | 77.86486 | -142.53833 | 33336 ft | 502 kts | 43° |
| 2026-04-30 20:53 | 78.15821 | -141.09622 | 33336 ft | 502 kts | 45° |
| 2026-04-30 20:53 | 78.35853 | -140.14576 | 33333 ft | 501 kts | 43° |
| 2026-04-30 20:54 | 78.65469 | -138.66498 | 33330 ft | 501 kts | 44° |
| 2026-04-30 20:55 | 78.94316 | -137.10670 | 33323 ft | 501 kts | 45° |
| 2026-04-30 20:55 | 79.13078 | -136.02340 | 33319 ft | 500 kts | 46° |
| 2026-04-30 20:56 | 79.40409 | -134.33287 | 33317 ft | 500 kts | 48° |
| 2026-04-30 20:57 | 79.66698 | -132.56207 | 33308 ft | 499 kts | 50° |
| 2026-04-30 20:57 | 79.83778 | -131.32342 | 33303 ft | 499 kts | 51° |
| 2026-04-30 20:58 | 80.08325 | -129.40138 | 33289 ft | 498 kts | 53° |
| 2026-04-30 20:58 | 80.24028 | -128.07035 | 33285 ft | 498 kts | 54° |
| 2026-04-30 20:59 | 80.46644 | -125.98739 | 33270 ft | 497 kts | 57° |
| 2026-04-30 21:00 | 80.74629 | -123.07438 | 33257 ft | 495 kts | 60° |
| 2026-04-30 21:01 | 80.93906 | -120.78795 | 33248 ft | 494 kts | 62° |
| 2026-04-30 21:02 | 81.12719 | -118.44283 | 33236 ft | 492 kts | 62° |
| 2026-04-30 21:02 | 81.24730 | -116.83973 | 33230 ft | 492 kts | 64° |
| 2026-04-30 21:03 | 81.36069 | -115.19234 | 33224 ft | 489 kts | 65° |
| 2026-04-30 21:03 | 81.39445 | -114.81227 | 31953 ft | 499 kts | 39° |
| 2026-04-30 21:03 | 81.42411 | -114.68551 | 30485 ft | 509 kts | 29° |
| 2026-04-30 21:03 | 81.45501 | -114.57499 | 30046 ft | 496 kts | 28° |
| 2026-04-30 21:04 | 81.48520 | -114.46659 | 29596 ft | 488 kts | 29° |
| 2026-04-30 21:04 | 81.51465 | -114.35931 | 29165 ft | 487 kts | 29° |
| 2026-04-30 21:04 | 81.58075 | -114.06000 | 28558 ft | 486 kts | 49° |
| 2026-04-30 21:05 | 81.61067 | -113.65363 | 29100 ft | 483 kts | 79° |
| 2026-04-30 21:05 | 81.60668 | -113.19847 | 29706 ft | 483 kts | 106° |
| 2026-04-30 21:05 | 81.58317 | -112.76911 | 30294 ft | 483 kts | 112° |
| 2026-04-30 21:05 | 81.56048 | -112.33764 | 30775 ft | 483 kts | 100° |
| 2026-04-30 21:06 | 81.56095 | -111.88356 | 31268 ft | 483 kts | 79° |
| 2026-04-30 21:06 | 81.57957 | -111.44367 | 31771 ft | 484 kts | 70° |
| 2026-04-30 21:06 | 81.60362 | -111.01361 | 32288 ft | 485 kts | 69° |
| 2026-04-30 21:06 | 81.62740 | -110.57931 | 32798 ft | 485 kts | 70° |
| 2026-04-30 21:07 | 81.64969 | -110.14185 | 33203 ft | 486 kts | 71° |
| 2026-04-30 21:07 | 81.67077 | -109.70633 | 33204 ft | 487 kts | 71° |
| 2026-04-30 21:07 | 81.71202 | -108.81386 | 33208 ft | 487 kts | 72° |
| 2026-04-30 21:08 | 81.75139 | -107.91263 | 33213 ft | 487 kts | 73° |
| 2026-04-30 21:08 | 81.78865 | -107.00515 | 33216 ft | 486 kts | 74° |
| 2026-04-30 21:09 | 81.82393 | -106.08770 | 33213 ft | 486 kts | 75° |
| 2026-04-30 21:09 | 81.85705 | -105.16495 | 33218 ft | 486 kts | 76° |
| 2026-04-30 21:10 | 81.88788 | -104.24059 | 33214 ft | 485 kts | 77° |
| 2026-04-30 21:10 | 81.91672 | -103.30600 | 33223 ft | 485 kts | 77° |
| 2026-04-30 21:11 | 81.94343 | -102.36476 | 33216 ft | 485 kts | 78° |
| 2026-04-30 21:11 | 81.96801 | -101.41619 | 33223 ft | 485 kts | 79° |
| 2026-04-30 21:12 | 81.99038 | -100.46309 | 33217 ft | 485 kts | 80° |
| 2026-04-30 21:12 | 82.01154 | -99.50628 | 33224 ft | 485 kts | 79° |
| 2026-04-30 21:13 | 82.03283 | -98.55562 | 33228 ft | 484 kts | 81° |
| 2026-04-30 21:13 | 82.05161 | -97.59354 | 33224 ft | 484 kts | 82° |
| 2026-04-30 21:14 | 82.06812 | -96.62518 | 33235 ft | 484 kts | 83° |
| 2026-04-30 21:14 | 82.08237 | -95.65478 | 33233 ft | 484 kts | 83° |
| 2026-04-30 21:15 | 82.09438 | -94.68054 | 33236 ft | 484 kts | 84° |
| 2026-04-30 21:15 | 82.10412 | -93.70491 | 33234 ft | 484 kts | 85° |
| 2026-04-30 21:16 | 82.11159 | -92.72729 | 33236 ft | 483 kts | 86° |
| 2026-04-30 21:16 | 82.11677 | -91.75290 | 33236 ft | 483 kts | 87° |
| 2026-04-30 21:17 | 82.11970 | -90.77429 | 33240 ft | 483 kts | 88° |
| 2026-04-30 21:17 | 82.12035 | -89.79525 | 33238 ft | 483 kts | 89° |
| 2026-04-30 21:18 | 82.11874 | -88.81682 | 33238 ft | 483 kts | 90° |
| 2026-04-30 21:18 | 82.11487 | -87.84104 | 33230 ft | 482 kts | 91° |
| 2026-04-30 21:19 | 82.10872 | -86.86301 | 33230 ft | 482 kts | 92° |
| 2026-04-30 21:19 | 82.10039 | -85.89709 | 33212 ft | 482 kts | 93° |
| 2026-04-30 21:20 | 82.08971 | -84.92052 | 33213 ft | 482 kts | 94° |
| 2026-04-30 21:20 | 82.07693 | -83.95817 | 33216 ft | 482 kts | 95° |
| 2026-04-30 21:21 | 82.06185 | -82.99369 | 33223 ft | 482 kts | 96° |
| 2026-04-30 21:22 | 82.03504 | -81.55184 | 33218 ft | 482 kts | 97° |
| 2026-04-30 21:23 | 82.00839 | -79.64987 | 33202 ft | 480 kts | 82° |
| 2026-04-30 21:23 | 82.03948 | -78.22613 | 33180 ft | 480 kts | 82° |
| 2026-04-30 21:24 | 82.05738 | -77.27038 | 33150 ft | 479 kts | 83° |
| 2026-04-30 21:24 | 82.07297 | -76.31121 | 33150 ft | 479 kts | 84° |
| 2026-04-30 21:25 | 82.09218 | -74.87286 | 33144 ft | 479 kts | 85° |
| 2026-04-30 21:26 | 82.10649 | -73.42350 | 33135 ft | 479 kts | 86° |
| 2026-04-30 21:27 | 82.11501 | -72.13342 | 33145 ft | 479 kts | 88° |